Time;durP1;ratioP1;P1;durP2;ratioP2;P2;SDS_P1;SDS_P2;PMS_P1;PMS_P2;Temp;Humidity;BMP_temperature;BMP_pressure;BME280_temperature;BME280_humidity;BME280_pressure;Samples;Min_cycle;Max_cycle;Signal;HPM_P1;HPM_P2
2023/09/24 00:01:16;;;;;;;11.93;3.47;;;11.60;83.40;;;;;;5087020;28;20089;-64
2023/09/24 00:03:42;;;;;;;10.10;3.90;;;11.60;83.50;;;;;;5085985;28;20039;-65
2023/09/24 00:06:09;;;;;;;8.50;3.70;;;11.60;83.50;;;;;;5079573;28;20083;-65
2023/09/24 00:08:36;;;;;;;7.32;3.45;;;11.60;83.60;;;;;;5079816;28;20079;-65
2023/09/24 00:11:02;;;;;;;11.57;4.03;;;11.50;83.50;;;;;;5078971;28;20047;-65
2023/09/24 00:13:29;;;;;;;10.13;3.53;;;11.50;83.50;;;;;;5079978;28;20052;-64
2023/09/24 00:16:06;;;;;;;11.40;3.22;;;11.50;83.50;;;;;;5069044;28;20476;-65
2023/09/24 00:18:36;;;;;;;10.77;3.60;;;11.50;83.50;;;;;;5079425;28;20036;-65
2023/09/24 00:21:03;;;;;;;12.23;4.07;;;11.50;83.50;;;;;;5084974;28;20076;-64
2023/09/24 00:23:28;;;;;;;12.02;3.90;;;11.40;83.50;;;;;;5089859;28;20031;-65
2023/09/24 00:25:55;;;;;;;8.18;3.58;;;11.40;83.50;;;;;;5089279;28;20117;-65
2023/09/24 00:28:22;;;;;;;10.95;4.15;;;11.40;83.70;;;;;;5089925;28;20040;-65
2023/09/24 00:30:50;;;;;;;12.35;3.80;;;11.40;83.70;;;;;;5074118;28;20041;-65
2023/09/24 00:33:16;;;;;;;10.48;4.13;;;11.30;83.70;;;;;;5083638;28;20071;-64
2023/09/24 00:35:43;;;;;;;11.15;4.30;;;11.30;83.70;;;;;;5093321;28;20043;-64
2023/09/24 00:38:08;;;;;;;11.63;4.03;;;11.30;83.70;;;;;;5084533;28;20477;-65
2023/09/24 00:40:34;;;;;;;10.25;3.85;;;11.30;83.80;;;;;;5088825;28;20055;-65
2023/09/24 00:43:00;;;;;;;9.40;3.72;;;11.20;83.80;;;;;;5084477;28;20044;-66
2023/09/24 00:45:26;;;;;;;8.57;3.97;;;11.10;83.90;;;;;;5077773;28;20048;-65
2023/09/24 00:47:56;;;;;;;11.82;4.30;;;11.10;83.90;;;;;;5084253;28;20040;-66
2023/09/24 00:50:24;;;;;;;10.85;4.25;;;11.10;84.00;;;;;;5090120;28;20078;-66
2023/09/24 00:52:53;;;;;;;10.07;4.55;;;11.10;84.00;;;;;;5092739;28;20040;-65
2023/09/24 00:55:19;;;;;;;10.60;4.15;;;11.00;84.10;;;;;;5092721;28;20123;-66
2023/09/24 00:57:47;;;;;;;10.68;4.00;;;11.00;84.20;;;;;;5081603;28;20127;-65
2023/09/24 01:00:18;;;;;;;12.02;4.15;;;11.00;84.10;;;;;;5086359;28;20040;-65
2023/09/24 01:02:47;;;;;;;13.13;5.18;;;10.90;84.10;;;;;;5084138;28;20048;-65
2023/09/24 01:05:14;;;;;;;11.02;4.72;;;10.90;84.20;;;;;;5099958;28;20056;-65
2023/09/24 01:07:41;;;;;;;11.05;4.32;;;10.90;84.40;;;;;;5093175;28;20044;-65
2023/09/24 01:10:08;;;;;;;16.25;4.72;;;10.90;84.50;;;;;;5093571;28;20075;-65
2023/09/24 01:12:34;;;;;;;15.55;4.90;;;10.90;84.40;;;;;;5093060;28;20048;-65
2023/09/24 01:15:00;;;;;;;13.73;4.50;;;10.80;84.50;;;;;;5093231;28;20036;-64
2023/09/24 01:17:26;;;;;;;14.02;4.90;;;10.80;84.50;;;;;;5084997;28;20044;-65
2023/09/24 01:19:53;;;;;;;15.07;4.97;;;10.80;84.60;;;;;;5093225;28;20040;-65
2023/09/24 01:22:20;;;;;;;16.98;5.50;;;10.80;84.60;;;;;;5092678;28;20046;-65
2023/09/24 01:24:45;;;;;;;13.82;5.05;;;10.80;84.60;;;;;;5092987;28;20126;-65
2023/09/24 01:27:11;;;;;;;11.98;4.63;;;10.80;84.60;;;;;;5092632;28;20040;-65
2023/09/24 01:29:37;;;;;;;10.05;4.68;;;10.70;84.50;;;;;;5092994;28;20054;-65
2023/09/24 01:32:06;;;;;;;20.30;5.45;;;10.70;84.30;;;;;;5090925;28;20046;-64
2023/09/24 01:34:32;;;;;;;14.20;5.10;;;10.60;84.50;;;;;;5085781;28;20094;-65
2023/09/24 01:36:58;;;;;;;10.68;5.05;;;10.60;84.50;;;;;;5084530;28;20077;-65
2023/09/24 01:39:27;;;;;;;13.13;6.00;;;10.60;84.60;;;;;;5092751;28;20044;-65
2023/09/24 01:41:53;;;;;;;10.73;5.88;;;10.50;84.70;;;;;;5089886;28;20136;-65
2023/09/24 01:44:21;;;;;;;16.00;6.10;;;10.50;84.70;;;;;;5072572;28;20581;-65
2023/09/24 01:46:48;;;;;;;14.60;6.53;;;10.50;84.80;;;;;;5073741;28;20055;-65
2023/09/24 01:49:16;;;;;;;13.10;6.35;;;10.50;84.80;;;;;;5072220;28;20091;-64
2023/09/24 01:51:44;;;;;;;12.82;6.45;;;10.50;84.80;;;;;;5072263;28;20044;-65
2023/09/24 01:54:10;;;;;;;11.07;5.65;;;10.40;85.00;;;;;;5078350;28;20044;-65
2023/09/24 01:56:36;;;;;;;10.73;4.20;;;10.40;85.00;;;;;;5071503;28;20101;-64
2023/09/24 01:59:04;;;;;;;6.38;3.63;;;10.40;84.50;;;;;;5071082;28;20044;-66
2023/09/24 02:01:29;;;;;;;5.82;3.55;;;10.20;84.20;;;;;;5083650;28;20052;-64
2023/09/24 02:03:59;;;;;;;8.45;4.03;;;10.10;84.20;;;;;;5074733;28;20644;-65
2023/09/24 02:06:25;;;;;;;14.48;5.50;;;10.10;84.30;;;;;;5086403;28;20051;-65
2023/09/24 02:08:51;;;;;;;6.65;3.38;;;10.00;84.40;;;;;;5080550;28;20270;-64
2023/09/24 02:11:18;;;;;;;5.93;3.63;;;10.00;84.60;;;;;;5090243;28;20044;-64
2023/09/24 02:13:43;;;;;;;13.95;6.25;;;10.00;84.20;;;;;;5091502;28;20123;-64
2023/09/24 02:16:09;;;;;;;11.05;5.85;;;10.00;84.80;;;;;;5088561;28;20169;-65
2023/09/24 02:18:36;;;;;;;13.82;6.75;;;10.00;85.10;;;;;;5086985;28;20036;-65
2023/09/24 02:21:02;;;;;;;16.60;7.18;;;10.00;85.50;;;;;;5089285;28;20059;-65
2023/09/24 02:23:28;;;;;;;15.23;6.88;;;10.10;85.70;;;;;;5081219;28;20044;-65
2023/09/24 02:25:55;;;;;;;16.73;6.80;;;10.20;85.80;;;;;;5088737;28;20048;-65
2023/09/24 02:28:20;;;;;;;17.83;7.10;;;10.20;85.80;;;;;;5081614;28;20093;-65
2023/09/24 02:30:47;;;;;;;14.07;7.13;;;10.20;85.80;;;;;;5090727;28;20118;-65
2023/09/24 02:33:13;;;;;;;16.02;7.82;;;10.30;85.80;;;;;;5091940;28;20036;-65
2023/09/24 02:35:39;;;;;;;18.33;7.20;;;10.30;85.80;;;;;;5091695;28;20048;-66
2023/09/24 02:38:07;;;;;;;22.63;8.10;;;10.30;85.80;;;;;;5081803;28;20052;-64
2023/09/24 02:40:32;;;;;;;19.38;7.97;;;10.30;85.90;;;;;;5084997;28;20472;-64
2023/09/24 02:42:59;;;;;;;15.25;7.80;;;10.30;86.10;;;;;;5079862;28;20044;-65
2023/09/24 02:45:26;;;;;;;14.05;7.82;;;10.30;86.20;;;;;;5072907;28;20048;-65
2023/09/24 02:47:52;;;;;;;14.75;7.47;;;10.30;86.20;;;;;;5091571;28;20043;-65
2023/09/24 02:50:22;;;;;;;13.93;7.95;;;10.30;86.10;;;;;;5088376;28;20047;-65
2023/09/24 02:52:49;;;;;;;17.23;7.65;;;10.30;86.20;;;;;;5071388;28;20119;-65
2023/09/24 02:55:15;;;;;;;20.30;7.57;;;10.30;86.20;;;;;;5070407;28;20048;-65
2023/09/24 02:57:44;;;;;;;17.58;7.13;;;10.30;86.20;;;;;;5086047;28;20048;-64
2023/09/24 03:00:35;;;;;;;15.52;6.60;;;10.20;86.20;;;;;;5088196;28;20040;-65
2023/09/24 03:02:58;;;;;;;14.38;6.53;;;10.20;86.20;;;;;;5076292;28;20578;-65
2023/09/24 03:05:24;;;;;;;18.75;7.78;;;10.20;86.30;;;;;;5077196;28;20048;-65
2023/09/24 03:07:54;;;;;;;13.95;6.47;;;10.20;86.30;;;;;;5072350;28;20507;-65
2023/09/24 03:10:21;;;;;;;15.18;7.35;;;10.20;86.30;;;;;;5087350;28;20042;-64
2023/09/24 03:12:48;;;;;;;11.75;7.00;;;10.20;86.30;;;;;;5073331;28;20040;-64
2023/09/24 03:15:13;;;;;;;14.18;8.48;;;10.20;86.50;;;;;;5079453;28;20049;-66
2023/09/24 03:17:41;;;;;;;19.98;7.88;;;10.20;86.60;;;;;;5086374;28;20101;-65
2023/09/24 03:20:14;;;;;;;14.95;7.70;;;10.20;86.70;;;;;;5079620;28;20048;-65
2023/09/24 03:22:51;;;;;;;20.80;8.05;;;10.30;86.90;;;;;;5070256;28;20044;-65
2023/09/24 03:25:21;;;;;;;11.70;7.68;;;10.30;87.00;;;;;;5070770;28;20045;-66
2023/09/24 03:27:48;;;;;;;12.15;8.23;;;10.40;87.00;;;;;;5069795;28;20119;-65
2023/09/24 03:30:14;;;;;;;15.30;8.38;;;10.40;87.10;;;;;;5070635;28;20244;-65
2023/09/24 03:32:41;;;;;;;16.60;9.20;;;10.40;87.20;;;;;;5073697;28;20042;-65
2023/09/24 03:35:09;;;;;;;16.50;8.90;;;10.50;87.20;;;;;;5090615;28;20040;-66
2023/09/24 03:37:40;;;;;;;16.95;8.48;;;10.50;87.20;;;;;;5089724;28;20059;-66
2023/09/24 03:40:27;;;;;;;19.37;9.00;;;10.50;87.20;;;;;;5090520;28;20055;-66
2023/09/24 03:42:53;;;;;;;12.82;8.57;;;10.60;87.20;;;;;;5078247;28;20044;-65
2023/09/24 03:45:20;;;;;;;16.10;8.38;;;10.60;87.20;;;;;;5084734;28;20032;-65
2023/09/24 03:47:46;;;;;;;14.45;8.98;;;10.70;87.30;;;;;;5069749;28;20087;-65
2023/09/24 03:50:14;;;;;;;16.55;9.38;;;10.70;87.30;;;;;;5070087;28;20040;-66
2023/09/24 03:52:59;;;;;;;15.55;8.43;;;10.70;87.20;;;;;;5075204;28;20124;-66
2023/09/24 03:55:25;;;;;;;16.23;8.90;;;10.70;87.10;;;;;;5092123;28;20109;-66
2023/09/24 03:57:50;;;;;;;18.55;8.82;;;10.80;87.20;;;;;;5089965;28;20423;-66
2023/09/24 04:00:21;;;;;;;16.80;8.52;;;10.80;87.00;;;;;;5071095;28;20047;-65
2023/09/24 04:02:48;;;;;;;16.45;8.27;;;10.80;86.90;;;;;;5081670;28;20563;-66
2023/09/24 04:05:17;;;;;;;15.45;8.60;;;10.80;86.90;;;;;;5074006;28;20131;-66
2023/09/24 04:07:49;;;;;;;15.02;8.00;;;10.80;86.80;;;;;;5069891;28;20048;-65
2023/09/24 04:10:15;;;;;;;17.63;8.75;;;10.80;86.70;;;;;;5089302;28;20044;-66
2023/09/24 04:12:46;;;;;;;16.15;8.73;;;10.70;86.60;;;;;;5089025;28;20055;-65
2023/09/24 04:15:18;;;;;;;13.93;8.23;;;10.70;86.50;;;;;;5080962;28;20493;-64
2023/09/24 04:17:44;;;;;;;14.85;9.02;;;10.70;86.40;;;;;;5084085;28;20512;-66
2023/09/24 04:20:15;;;;;;;17.98;8.77;;;10.70;86.40;;;;;;5080232;28;20131;-66
2023/09/24 04:22:44;;;;;;;12.93;8.23;;;10.70;86.30;;;;;;5087004;28;20100;-66
2023/09/24 04:25:11;;;;;;;14.88;8.57;;;10.60;86.20;;;;;;5089644;28;20465;-65
2023/09/24 04:27:38;;;;;;;17.77;8.85;;;10.60;86.10;;;;;;5089504;28;20368;-65
2023/09/24 04:30:10;;;;;;;13.73;9.07;;;10.50;86.00;;;;;;5078606;28;20040;-66
2023/09/24 04:32:35;;;;;;;17.35;9.10;;;10.50;85.90;;;;;;5072219;28;20056;-66
2023/09/24 04:35:01;;;;;;;13.45;9.15;;;10.50;85.90;;;;;;5079283;28;20111;-65
2023/09/24 04:37:27;;;;;;;17.50;9.48;;;10.40;85.90;;;;;;5068174;28;20083;-65
2023/09/24 04:39:53;;;;;;;14.10;8.20;;;10.40;85.80;;;;;;5069192;28;20052;-65
2023/09/24 04:42:18;;;;;;;17.25;10.23;;;10.40;85.80;;;;;;5085875;28;20044;-65
2023/09/24 04:44:44;;;;;;;17.92;9.45;;;10.30;85.80;;;;;;5070136;28;20392;-66
2023/09/24 04:47:10;;;;;;;20.15;10.32;;;10.30;85.70;;;;;;5086562;28;20052;-65
2023/09/24 04:49:35;;;;;;;16.05;9.45;;;10.30;85.70;;;;;;5098275;28;20036;-65
2023/09/24 04:52:01;;;;;;;13.95;9.15;;;10.20;85.70;;;;;;5092785;28;20430;-66
2023/09/24 04:54:27;;;;;;;15.30;9.27;;;10.20;85.70;;;;;;5076602;28;20048;-65
2023/09/24 04:56:53;;;;;;;15.38;9.60;;;10.20;85.60;;;;;;5074543;28;20510;-65
2023/09/24 04:59:19;;;;;;;14.70;9.43;;;10.20;85.60;;;;;;5076389;28;20074;-65
2023/09/24 05:01:44;;;;;;;16.33;9.95;;;10.20;85.70;;;;;;5074379;28;20052;-66
2023/09/24 05:04:10;;;;;;;16.75;8.82;;;10.20;85.70;;;;;;5072144;28;20037;-65
2023/09/24 05:06:36;;;;;;;21.83;9.48;;;10.20;85.70;;;;;;5083219;28;20037;-64
2023/09/24 05:09:01;;;;;;;15.57;9.67;;;10.20;85.70;;;;;;5079399;28;21449;-65
2023/09/24 05:11:27;;;;;;;20.88;10.07;;;10.10;85.70;;;;;;5071479;28;20036;-65
2023/09/24 05:13:53;;;;;;;17.80;10.00;;;10.10;85.70;;;;;;5069666;28;20043;-66
2023/09/24 05:16:19;;;;;;;14.97;9.60;;;10.10;85.70;;;;;;5086825;28;20040;-65
2023/09/24 05:18:45;;;;;;;15.90;9.67;;;10.10;85.70;;;;;;5092237;28;20122;-65
2023/09/24 05:21:15;;;;;;;19.98;10.38;;;10.20;85.70;;;;;;5087495;28;20041;-65
2023/09/24 05:23:41;;;;;;;16.53;10.20;;;10.10;85.60;;;;;;5071629;28;20589;-65
2023/09/24 05:26:11;;;;;;;15.88;9.45;;;10.10;85.50;;;;;;5072837;28;20127;-66
2023/09/24 05:28:37;;;;;;;13.10;9.18;;;10.10;85.50;;;;;;5072471;28;20048;-66
2023/09/24 05:31:03;;;;;;;15.80;9.18;;;10.10;85.50;;;;;;5092118;28;20278;-65
2023/09/24 05:33:29;;;;;;;18.80;9.20;;;10.10;85.40;;;;;;5092648;28;20046;-65
2023/09/24 05:35:54;;;;;;;16.77;9.43;;;10.10;85.30;;;;;;5079377;28;20040;-65
2023/09/24 05:38:21;;;;;;;22.73;11.03;;;10.10;85.20;;;;;;5090880;28;20047;-65
2023/09/24 05:40:47;;;;;;;17.10;9.40;;;10.10;85.10;;;;;;5082245;28;20044;-65
2023/09/24 05:43:13;;;;;;;19.35;10.35;;;10.10;85.00;;;;;;5092274;28;20148;-65
2023/09/24 05:45:46;;;;;;;16.38;10.07;;;10.10;85.00;;;;;;5088587;28;20080;-65
2023/09/24 05:48:14;;;;;;;17.97;9.30;;;10.10;84.90;;;;;;5072198;28;20178;-65
2023/09/24 05:50:40;;;;;;;12.50;8.00;;;10.10;84.90;;;;;;5071109;28;20064;-66
2023/09/24 05:53:06;;;;;;;15.43;8.30;;;10.10;84.80;;;;;;5071799;28;20131;-65
2023/09/24 05:55:32;;;;;;;14.80;9.23;;;10.10;84.70;;;;;;5072380;28;20055;-65
2023/09/24 05:57:58;;;;;;;16.07;8.77;;;10.20;84.70;;;;;;5077146;28;20383;-66
2023/09/24 06:00:24;;;;;;;14.03;8.13;;;10.20;84.60;;;;;;5086086;28;20560;-64
2023/09/24 06:02:50;;;;;;;15.48;8.57;;;10.20;84.50;;;;;;5089128;28;20043;-65
2023/09/24 06:05:16;;;;;;;15.25;8.77;;;10.20;84.50;;;;;;5084207;28;20421;-65
2023/09/24 06:07:42;;;;;;;16.35;8.55;;;10.20;84.30;;;;;;5073551;28;20159;-65
2023/09/24 06:10:09;;;;;;;12.87;8.53;;;10.20;84.40;;;;;;5090442;28;20048;-65
2023/09/24 06:12:35;;;;;;;17.73;8.63;;;10.20;84.30;;;;;;5078434;28;20122;-65
2023/09/24 06:15:01;;;;;;;19.92;9.30;;;10.20;84.10;;;;;;5078105;28;20115;-65
2023/09/24 06:17:27;;;;;;;16.05;8.95;;;10.20;84.20;;;;;;5077839;28;20036;-65
2023/09/24 06:19:55;;;;;;;16.40;8.68;;;10.20;84.20;;;;;;5071409;28;20045;-65
2023/09/24 06:22:22;;;;;;;16.67;9.10;;;10.20;84.10;;;;;;5071025;28;20477;-65
2023/09/24 06:24:50;;;;;;;12.50;8.33;;;10.20;84.10;;;;;;5071847;28;20051;-65
2023/09/24 06:27:16;;;;;;;16.20;8.50;;;10.30;84.00;;;;;;5073077;28;20050;-65
2023/09/24 06:29:43;;;;;;;13.98;8.80;;;10.30;84.10;;;;;;5089623;28;20050;-64
2023/09/24 06:32:08;;;;;;;15.88;9.40;;;10.30;84.10;;;;;;5091038;28;20470;-65
2023/09/24 06:34:36;;;;;;;19.67;9.90;;;10.40;84.20;;;;;;5086496;28;20047;-65
2023/09/24 06:37:02;;;;;;;17.23;10.13;;;10.40;84.10;;;;;;5090821;28;20079;-65
2023/09/24 06:39:29;;;;;;;32.10;18.60;;;10.50;84.10;;;;;;5091474;28;20063;-65
2023/09/24 06:41:55;;;;;;;29.13;16.25;;;10.50;84.00;;;;;;5096365;28;20079;-64
2023/09/24 06:44:22;;;;;;;19.15;10.02;;;10.50;84.00;;;;;;5091476;28;20047;-65
2023/09/24 06:46:49;;;;;;;18.85;9.65;;;10.60;84.00;;;;;;5075818;28;20469;-64
2023/09/24 06:49:15;;;;;;;18.25;9.30;;;10.60;83.90;;;;;;5083073;28;20553;-65
2023/09/24 06:51:40;;;;;;;20.58;10.65;;;10.70;83.80;;;;;;5070824;28;20040;-65
2023/09/24 06:54:06;;;;;;;18.67;9.75;;;10.80;83.90;;;;;;5070484;28;20045;-65
2023/09/24 06:56:31;;;;;;;17.30;9.70;;;10.80;84.00;;;;;;5071020;28;20045;-66
2023/09/24 06:58:57;;;;;;;16.60;10.40;;;10.90;83.90;;;;;;5074274;28;20407;-65
2023/09/24 07:01:23;;;;;;;16.67;9.00;;;10.90;83.70;;;;;;5083043;28;20036;-64
2023/09/24 07:03:49;;;;;;;20.52;8.38;;;11.00;83.50;;;;;;5077368;28;20074;-65
2023/09/24 07:06:16;;;;;;;14.32;8.40;;;11.00;83.40;;;;;;5064846;28;20444;-65
2023/09/24 07:08:42;;;;;;;15.90;7.40;;;11.10;83.10;;;;;;5085915;28;20554;-65
2023/09/24 07:11:20;;;;;;;16.08;8.88;;;11.10;83.20;;;;;;5077665;28;20398;-66
2023/09/24 07:13:46;;;;;;;14.85;7.97;;;11.10;83.00;;;;;;5082365;28;20123;-66
2023/09/24 07:16:11;;;;;;;15.35;8.23;;;11.20;82.90;;;;;;5077365;28;20099;-65
2023/09/24 07:18:37;;;;;;;16.30;7.97;;;11.30;82.80;;;;;;5072739;28;20102;-65
2023/09/24 07:21:03;;;;;;;16.05;8.25;;;11.30;82.80;;;;;;5072295;28;20689;-65
2023/09/24 07:23:29;;;;;;;15.45;7.40;;;11.40;82.90;;;;;;5084999;28;20484;-65
2023/09/24 07:25:55;;;;;;;14.55;8.30;;;11.40;82.60;;;;;;5087311;28;20054;-66
2023/09/24 07:28:24;;;;;;;14.63;7.80;;;11.50;82.60;;;;;;5087463;28;20044;-64
2023/09/24 07:30:53;;;;;;;11.77;7.95;;;11.50;82.60;;;;;;5074256;28;20047;-65
2023/09/24 07:33:21;;;;;;;14.27;7.70;;;11.50;82.30;;;;;;5087666;28;20046;-66
2023/09/24 07:35:46;;;;;;;13.10;8.48;;;11.50;82.40;;;;;;5083298;28;20105;-65
2023/09/24 07:38:12;;;;;;;14.07;7.25;;;11.50;82.50;;;;;;5077472;28;20083;-64
2023/09/24 07:40:39;;;;;;;11.73;7.60;;;11.50;82.30;;;;;;5081044;28;20579;-66
2023/09/24 07:43:08;;;;;;;12.57;7.10;;;11.60;82.20;;;;;;5081993;28;20373;-66
2023/09/24 07:45:34;;;;;;;12.65;8.05;;;11.70;82.20;;;;;;5086803;28;20497;-65
2023/09/24 07:48:00;;;;;;;12.18;7.55;;;11.70;82.10;;;;;;5082056;28;20071;-65
2023/09/24 07:50:26;;;;;;;14.88;6.97;;;11.70;81.40;;;;;;5079866;28;20075;-66
2023/09/24 07:52:52;;;;;;;10.80;7.20;;;11.90;81.50;;;;;;5085377;28;20036;-65
2023/09/24 07:55:17;;;;;;;14.38;7.05;;;11.90;81.60;;;;;;5083065;28;20523;-65
2023/09/24 07:57:43;;;;;;;13.10;7.07;;;12.00;81.70;;;;;;5085420;28;20040;-65
2023/09/24 08:00:09;;;;;;;11.93;7.07;;;12.00;81.00;;;;;;5083135;28;20036;-65
2023/09/24 08:02:35;;;;;;;14.38;7.05;;;12.10;80.30;;;;;;5085206;28;20063;-65
2023/09/24 08:05:01;;;;;;;13.30;6.70;;;12.20;80.20;;;;;;5079587;28;20048;-64
2023/09/24 08:07:29;;;;;;;14.18;7.80;;;12.20;79.40;;;;;;5074463;28;20130;-65
2023/09/24 08:09:56;;;;;;;13.43;6.60;;;12.30;80.10;;;;;;5075294;28;20114;-65
2023/09/24 08:12:21;;;;;;;14.20;7.45;;;12.40;79.50;;;;;;5083986;28;20063;-64
2023/09/24 08:14:47;;;;;;;12.13;6.70;;;12.50;80.00;;;;;;5084231;28;20055;-65
2023/09/24 08:17:13;;;;;;;11.07;5.80;;;12.50;79.70;;;;;;5082800;28;20054;-65
2023/09/24 08:19:39;;;;;;;15.00;6.82;;;12.50;78.80;;;;;;5083834;28;20032;-65
2023/09/24 08:22:05;;;;;;;11.43;6.28;;;12.60;79.30;;;;;;5085994;28;20479;-65
2023/09/24 08:24:30;;;;;;;12.80;6.22;;;12.70;78.90;;;;;;5080033;28;20040;-65
2023/09/24 08:26:56;;;;;;;13.88;5.95;;;12.70;78.60;;;;;;5086052;28;20043;-65
2023/09/24 08:29:22;;;;;;;12.60;6.20;;;12.80;78.10;;;;;;5082370;28;20032;-65
2023/09/24 08:31:48;;;;;;;13.20;5.78;;;12.80;78.30;;;;;;5085898;28;20048;-64
2023/09/24 08:34:13;;;;;;;12.40;5.80;;;12.90;78.70;;;;;;5081937;28;20037;-63
2023/09/24 08:36:39;;;;;;;13.93;5.75;;;12.90;78.10;;;;;;5070590;28;20387;-65
2023/09/24 08:39:05;;;;;;;12.25;5.53;;;13.00;77.90;;;;;;5079809;28;20509;-65
2023/09/24 08:41:32;;;;;;;8.50;4.82;;;13.10;78.10;;;;;;5084445;28;20052;-65
2023/09/24 08:44:02;;;;;;;11.25;5.22;;;13.10;78.00;;;;;;5082675;28;20132;-64
2023/09/24 08:46:28;;;;;;;13.38;5.70;;;13.10;77.80;;;;;;5073563;28;20458;-64
2023/09/24 08:48:54;;;;;;;13.88;5.47;;;13.20;78.30;;;;;;5081674;28;20086;-65
2023/09/24 08:51:20;;;;;;;13.00;5.55;;;13.30;77.50;;;;;;5076013;28;20114;-65
2023/09/24 08:53:46;;;;;;;11.10;5.50;;;13.30;77.50;;;;;;5074001;28;20515;-66
2023/09/24 08:56:11;;;;;;;9.85;5.07;;;13.30;77.40;;;;;;5086391;28;20036;-65
2023/09/24 08:58:37;;;;;;;10.48;5.10;;;13.50;77.20;;;;;;5084629;28;20044;-65
2023/09/24 09:01:08;;;;;;;10.98;4.82;;;13.50;77.10;;;;;;5089765;28;20338;-66
2023/09/24 09:03:34;;;;;;;9.10;4.55;;;13.60;76.50;;;;;;5084464;28;20097;-66
2023/09/24 09:05:59;;;;;;;7.13;4.38;;;13.60;76.40;;;;;;5086467;28;20043;-65
2023/09/24 09:08:25;;;;;;;10.90;4.90;;;13.70;77.00;;;;;;5078531;28;20072;-66
2023/09/24 09:10:51;;;;;;;11.35;4.80;;;13.80;76.40;;;;;;5088990;28;20046;-67
2023/09/24 09:13:21;;;;;;;10.20;4.53;;;13.90;76.40;;;;;;5082415;28;20155;-66
2023/09/24 09:16:00;;;;;;;8.55;4.22;;;13.90;76.50;;;;;;5072454;28;20585;-66
2023/09/24 09:18:27;;;;;;;7.75;3.90;;;14.00;75.60;;;;;;5082497;28;20040;-67
2023/09/24 09:21:00;;;;;;;7.47;3.78;;;14.10;75.80;;;;;;5086470;28;20101;-65
2023/09/24 09:23:30;;;;;;;8.77;3.67;;;14.20;75.50;;;;;;5086171;28;20044;-66
2023/09/24 09:25:56;;;;;;;9.27;3.50;;;14.30;75.00;;;;;;5083243;28;20044;-66
2023/09/24 09:28:24;;;;;;;8.93;3.50;;;14.40;74.30;;;;;;5086693;28;20036;-65
2023/09/24 09:31:00;;;;;;;8.00;3.65;;;14.50;74.00;;;;;;5086663;28;20044;-66
2023/09/24 09:33:27;;;;;;;9.27;3.95;;;14.60;74.00;;;;;;5086158;28;20047;-65
2023/09/24 09:35:54;;;;;;;7.95;2.78;;;14.70;73.50;;;;;;5085882;28;20063;-64
2023/09/24 09:38:21;;;;;;;7.70;3.25;;;14.70;73.70;;;;;;5081870;28;20098;-65
2023/09/24 09:40:51;;;;;;;8.38;3.33;;;14.70;74.00;;;;;;5079513;28;20041;-65
2023/09/24 09:43:21;;;;;;;14.10;3.58;;;14.90;74.00;;;;;;5092960;28;20400;-65
2023/09/24 09:45:50;;;;;;;8.32;3.03;;;14.90;72.90;;;;;;5089302;28;20181;-65
2023/09/24 09:48:19;;;;;;;8.68;3.00;;;15.00;73.60;;;;;;5084439;28;20044;-66
2023/09/24 09:50:46;;;;;;;10.00;3.28;;;15.00;73.00;;;;;;5085969;28;20052;-64
2023/09/24 09:53:17;;;;;;;13.13;6.00;;;15.10;72.30;;;;;;5083300;28;20083;-65
2023/09/24 09:55:44;;;;;;;15.75;6.70;;;15.10;72.60;;;;;;5087964;28;20873;-66
2023/09/24 09:58:11;;;;;;;10.23;4.00;;;15.30;72.50;;;;;;5083130;28;20044;-66
2023/09/24 10:00:38;;;;;;;8.27;2.70;;;15.30;71.50;;;;;;5081395;28;20048;-65
2023/09/24 10:03:05;;;;;;;11.02;3.08;;;15.40;71.20;;;;;;5082029;28;20048;-65
2023/09/24 10:05:31;;;;;;;9.30;3.17;;;15.60;71.30;;;;;;5082811;28;20044;-65
2023/09/24 10:07:57;;;;;;;7.75;3.47;;;15.60;71.40;;;;;;5080319;28;20125;-65
2023/09/24 10:10:32;;;;;;;10.23;3.20;;;15.70;71.00;;;;;;5081856;28;20071;-66
2023/09/24 10:12:59;;;;;;;8.88;3.70;;;15.70;70.40;;;;;;5081247;28;20185;-64
2023/09/24 10:15:32;;;;;;;9.48;3.58;;;15.70;70.70;;;;;;5082225;28;20064;-65
2023/09/24 10:18:07;;;;;;;9.13;3.42;;;15.80;71.30;;;;;;5085742;28;20387;-65
2023/09/24 10:20:53;;;;;;;8.93;3.08;;;16.00;70.50;;;;;;5085822;28;20142;-65
2023/09/24 10:23:39;;;;;;;9.00;3.15;;;16.00;69.00;;;;;;5082202;28;20052;-64
2023/09/24 10:26:24;;;;;;;11.10;3.50;;;16.00;69.50;;;;;;5070696;28;20138;-65
2023/09/24 10:28:51;;;;;;;10.15;3.35;;;16.00;70.20;;;;;;5071216;28;20487;-65
2023/09/24 10:31:21;;;;;;;9.10;2.47;;;16.10;69.80;;;;;;5070533;28;20477;-65
2023/09/24 10:33:53;;;;;;;9.38;3.15;;;16.00;69.70;;;;;;5082843;28;20463;-65
2023/09/24 10:36:29;;;;;;;11.45;3.10;;;16.10;69.30;;;;;;5075506;28;20064;-65
2023/09/24 10:39:04;;;;;;;7.32;2.63;;;16.10;69.60;;;;;;5079189;28;20516;-65
2023/09/24 10:41:32;;;;;;;8.07;2.90;;;16.10;68.90;;;;;;5080116;28;20044;-65
2023/09/24 10:44:26;;;;;;;9.05;2.58;;;16.20;69.30;;;;;;5075101;28;20067;-65
2023/09/24 10:46:53;;;;;;;7.75;2.58;;;16.20;68.20;;;;;;5077786;28;20036;-65
2023/09/24 10:49:24;;;;;;;8.48;2.40;;;16.20;69.00;;;;;;5080203;28;20373;-66
2023/09/24 10:51:58;;;;;;;9.30;2.55;;;16.30;68.60;;;;;;5081845;28;20047;-65
2023/09/24 10:54:24;;;;;;;5.55;2.20;;;16.40;68.30;;;;;;5075183;28;20036;-64
2023/09/24 10:56:49;;;;;;;7.75;2.20;;;16.40;68.30;;;;;;5080976;28;20040;-66
2023/09/24 10:59:16;;;;;;;8.75;2.55;;;16.40;68.50;;;;;;5084778;28;20052;-64
2023/09/24 11:01:44;;;;;;;6.38;2.30;;;16.40;68.80;;;;;;5090988;28;20085;-64
2023/09/24 11:04:10;;;;;;;5.60;2.38;;;16.50;69.10;;;;;;5085955;28;20553;-64
2023/09/24 11:06:36;;;;;;;7.20;2.38;;;16.50;69.10;;;;;;5070837;28;20037;-64
2023/09/24 11:09:19;;;;;;;7.88;2.63;;;16.60;68.80;;;;;;5075795;28;20040;-64
2023/09/24 11:11:45;;;;;;;5.10;2.10;;;16.70;67.70;;;;;;5083017;28;20495;-65
2023/09/24 11:14:23;;;;;;;8.00;2.10;;;16.70;69.00;;;;;;5084684;28;20043;-65
2023/09/24 11:16:54;;;;;;;5.72;1.92;;;16.70;69.00;;;;;;5076448;28;20052;-65
2023/09/24 11:19:42;;;;;;;5.50;2.08;;;16.80;68.60;;;;;;5090327;28;20510;-65
2023/09/24 11:22:23;;;;;;;4.75;1.83;;;16.90;67.10;;;;;;5081569;28;20040;-64
2023/09/24 11:25:10;;;;;;;6.80;2.10;;;16.90;66.70;;;;;;5080447;28;20048;-65
2023/09/24 11:27:51;;;;;;;5.78;1.90;;;17.00;67.40;;;;;;5076488;28;20033;-65
2023/09/24 11:30:18;;;;;;;7.03;2.03;;;17.00;67.00;;;;;;5075123;28;20084;-65
2023/09/24 11:32:46;;;;;;;8.55;1.98;;;17.10;67.00;;;;;;5077444;28;20044;-65
2023/09/24 11:35:14;;;;;;;7.72;2.28;;;17.10;67.10;;;;;;5078137;28;20349;-65
2023/09/24 11:38:01;;;;;;;4.82;1.95;;;17.10;66.80;;;;;;5078695;28;20040;-65
2023/09/24 11:40:27;;;;;;;7.05;2.15;;;17.10;64.60;;;;;;5079865;28;20259;-65
2023/09/24 11:42:57;;;;;;;6.25;1.90;;;17.10;66.70;;;;;;5080350;28;20105;-65
2023/09/24 11:45:49;;;;;;;3.80;1.80;;;17.10;66.40;;;;;;5073034;28;20032;-65
2023/09/24 11:48:16;;;;;;;6.80;2.03;;;17.20;65.20;;;;;;5081539;28;20125;-65
2023/09/24 11:50:53;;;;;;;6.22;2.17;;;17.20;65.90;;;;;;5075312;28;20040;-65
2023/09/24 11:53:25;;;;;;;8.10;1.80;;;17.10;65.50;;;;;;5077482;28;20399;-65
2023/09/24 11:55:52;;;;;;;4.30;1.38;;;17.10;65.60;;;;;;5075916;28;20036;-65
2023/09/24 11:58:18;;;;;;;4.57;1.92;;;17.20;66.40;;;;;;5076871;28;20047;-65
2023/09/24 12:00:44;;;;;;;6.47;2.00;;;17.20;65.90;;;;;;5073359;28;20392;-65
2023/09/24 12:03:11;;;;;;;7.70;1.92;;;17.20;66.00;;;;;;5069071;28;20047;-65
2023/09/24 12:05:37;;;;;;;6.82;1.80;;;17.20;66.10;;;;;;5071321;28;21043;-65
2023/09/24 12:08:05;;;;;;;4.82;1.70;;;17.30;65.60;;;;;;5072833;28;20160;-65
2023/09/24 12:10:38;;;;;;;4.97;1.85;;;17.40;65.80;;;;;;5070369;28;20511;-65
2023/09/24 12:13:04;;;;;;;5.75;2.00;;;17.50;65.40;;;;;;5075180;28;20572;-64
2023/09/24 12:15:31;;;;;;;10.32;1.92;;;17.50;65.10;;;;;;5070752;28;20480;-65
2023/09/24 12:17:58;;;;;;;4.97;1.90;;;17.50;65.30;;;;;;5069994;28;20496;-65
2023/09/24 12:20:27;;;;;;;6.72;1.52;;;17.60;65.40;;;;;;5074307;28;20549;-65
2023/09/24 12:22:54;;;;;;;7.95;2.00;;;17.70;65.20;;;;;;5072250;28;20036;-65
2023/09/24 12:25:20;;;;;;;6.53;2.00;;;17.80;64.90;;;;;;5082597;28;20093;-65
2023/09/24 12:27:46;;;;;;;3.53;1.58;;;17.80;65.00;;;;;;5086427;28;20036;-65
2023/09/24 12:30:12;;;;;;;5.20;1.55;;;17.90;64.50;;;;;;5090944;28;20090;-66
2023/09/24 12:32:39;;;;;;;5.93;1.90;;;17.90;64.00;;;;;;5090512;28;20487;-65
2023/09/24 12:35:10;;;;;;;5.00;1.83;;;17.80;64.00;;;;;;5090998;28;20044;-65
2023/09/24 12:37:36;;;;;;;5.40;1.75;;;17.90;64.50;;;;;;5090983;28;20044;-65
2023/09/24 12:40:08;;;;;;;6.25;1.80;;;17.80;64.00;;;;;;5082750;28;20135;-65
2023/09/24 12:42:38;;;;;;;7.15;1.73;;;17.80;63.70;;;;;;5082255;28;20044;-65